Time;durP1;ratioP1;P1;durP2;ratioP2;P2;SDS_P1;SDS_P2;PMS_P1;PMS_P2;Temp;Humidity;BMP_temperature;BMP_pressure;BME280_temperature;BME280_humidity;BME280_pressure;Samples;Min_cycle;Max_cycle;Signal;HPM_P1;HPM_P2
2022/09/02 00:01:02;;;;;;;3.50;2.03;;;;;;;8.78;100.00;99988.37;1715451;80;21141;-49
2022/09/02 00:03:33;;;;;;;5.20;2.77;;;;;;;8.82;100.00;99987.80;1720229;80;21077;-49
2022/09/02 00:06:00;;;;;;;5.20;3.30;;;;;;;8.88;100.00;99987.09;1723770;80;21107;-50
2022/09/02 00:08:27;;;;;;;5.17;2.90;;;;;;;8.89;100.00;99994.22;1716057;81;21106;-50
2022/09/02 00:10:54;;;;;;;6.07;2.87;;;;;;;8.87;100.00;99995.20;1730961;81;21058;-51
2022/09/02 00:13:20;;;;;;;4.80;2.97;;;;;;;8.83;100.00;99994.46;1715131;81;22276;-48
2022/09/02 00:15:47;;;;;;;4.93;2.87;;;;;;;8.80;100.00;99993.69;1725838;80;21054;-50
2022/09/02 00:18:15;;;;;;;5.20;3.00;;;;;;;8.70;100.00;99995.36;1728912;80;21074;-50
2022/09/02 00:20:43;;;;;;;5.70;3.80;;;;;;;8.63;100.00;99998.33;1722236;80;21483;-50
2022/09/02 00:23:09;;;;;;;7.90;3.90;;;;;;;8.59;100.00;100004.27;1660128;84;22159;-50
2022/09/02 00:25:36;;;;;;;9.03;4.20;;;;;;;8.57;100.00;100002.59;1716624;81;21039;-48
2022/09/02 00:28:03;;;;;;;8.40;4.13;;;;;;;8.57;100.00;100005.27;1728270;80;21119;-50
2022/09/02 00:30:31;;;;;;;7.33;4.80;;;;;;;8.59;100.00;100011.47;1724439;80;20999;-51
2022/09/02 00:32:58;;;;;;;6.57;4.50;;;;;;;8.59;100.00;100005.60;1716836;80;21584;-49
2022/09/02 00:35:25;;;;;;;12.33;5.67;;;;;;;8.63;100.00;100013.09;1723297;80;21086;-51
2022/09/02 00:37:51;;;;;;;9.07;6.87;;;;;;;8.63;100.00;100018.45;1713422;80;21125;-50
2022/09/02 00:40:18;;;;;;;10.20;6.23;;;;;;;8.59;100.00;100014.99;1715927;81;21553;-49
2022/09/02 00:42:45;;;;;;;10.33;6.67;;;;;;;8.57;100.00;100016.00;1721607;80;21596;-51
2022/09/02 00:45:13;;;;;;;10.80;5.00;;;;;;;8.54;100.00;100018.78;1721239;80;21135;-49
2022/09/02 00:47:40;;;;;;;11.60;5.57;;;;;;;8.54;100.00;100026.83;1719089;80;21086;-49
2022/09/02 00:50:09;;;;;;;8.07;5.30;;;;;;;8.53;100.00;100022.39;1722522;80;21377;-49
2022/09/02 00:52:53;;;;;;;8.63;4.63;;;;;;;8.53;100.00;100033.13;1705004;80;21065;-51
2022/09/02 00:55:29;;;;;;;7.57;4.47;;;;;;;8.50;100.00;100027.42;1723016;80;21408;-49
2022/09/02 00:58:07;;;;;;;6.93;3.93;;;;;;;8.46;100.00;100035.16;1724405;80;21077;-50
2022/09/02 01:00:38;;;;;;;5.40;3.70;;;;;;;8.43;100.00;100036.59;1718826;80;21495;-49
2022/09/02 01:03:07;;;;;;;5.53;3.47;;;;;;;8.43;100.00;100033.91;1667582;83;21050;-50
2022/09/02 01:05:37;;;;;;;4.33;2.47;;;;;;;8.44;100.00;100032.11;1716666;80;21540;-49
2022/09/02 01:08:06;;;;;;;7.53;2.50;;;;;;;8.44;100.00;100040.16;1720514;81;21128;-51
2022/09/02 01:10:33;;;;;;;3.97;3.03;;;;;;;8.35;100.00;100036.86;1728848;80;21222;-51
2022/09/02 01:13:06;;;;;;;5.00;3.30;;;;;;;8.25;100.00;100042.09;1730696;80;21110;-50
2022/09/02 01:15:40;;;;;;;3.80;2.87;;;;;;;8.11;100.00;100041.70;1731248;80;21566;-47
2022/09/02 01:18:07;;;;;;;5.93;3.47;;;;;;;7.99;100.00;100037.61;1731512;80;21659;-49
2022/09/02 01:20:34;;;;;;;5.67;2.43;;;;;;;7.89;100.00;100041.55;1729716;80;21558;-49
2022/09/02 01:23:01;;;;;;;4.47;2.40;;;;;;;7.86;100.00;100050.13;1740269;80;21148;-49
2022/09/02 01:25:30;;;;;;;3.80;2.30;;;;;;;7.83;100.00;100052.44;1734413;80;21029;-49
2022/09/02 01:28:08;;;;;;;5.60;2.90;;;;;;;7.80;100.00;100050.34;1729944;80;21093;-49
2022/09/02 01:30:36;;;;;;;3.57;2.43;;;;;;;7.78;100.00;100053.53;1727556;80;21121;-49
2022/09/02 01:33:03;;;;;;;9.83;2.60;;;;;;;7.77;100.00;100055.33;1735889;80;21096;-50
2022/09/02 01:35:30;;;;;;;5.73;2.93;;;;;;;7.79;100.00;100056.16;1732242;80;21146;-50
2022/09/02 01:37:57;;;;;;;6.33;3.17;;;;;;;7.81;100.00;100056.12;1734438;80;21532;-51
2022/09/02 01:40:26;;;;;;;6.63;3.17;;;;;;;7.85;100.00;100055.95;1737436;80;21089;-48
2022/09/02 01:43:00;;;;;;;7.17;2.97;;;;;;;7.91;100.00;100051.73;1676352;83;21058;-52
2022/09/02 01:45:28;;;;;;;;;;;;;;;7.97;100.00;100062.73;1699757;82;21744;-49
2022/09/02 01:47:55;;;;;;;8.27;3.70;;;;;;;8.02;100.00;100058.55;1671118;83;21140;-49
2022/09/02 01:50:21;;;;;;;6.23;3.47;;;;;;;8.04;100.00;100067.42;1678419;83;20950;-50
2022/09/02 01:52:49;;;;;;;8.27;3.60;;;;;;;8.05;100.00;100068.72;1682145;83;21068;-51
2022/09/02 01:55:15;;;;;;;4.63;3.40;;;;;;;8.00;100.00;100074.67;1681417;83;21141;-51
2022/09/02 01:57:42;;;;;;;7.60;3.97;;;;;;;7.85;100.00;100077.40;1682211;83;21504;-51
2022/09/02 02:00:11;;;;;;;5.33;3.87;;;;;;;7.73;100.00;100077.80;1685186;83;21169;-52
2022/09/02 02:02:40;;;;;;;6.23;3.20;;;;;;;7.66;100.00;100072.20;1679698;83;21547;-52
2022/09/02 02:05:07;;;;;;;4.90;3.83;;;;;;;7.64;100.00;100074.53;1681676;83;20998;-51
2022/09/02 02:07:34;;;;;;;10.70;3.70;;;;;;;7.66;100.00;100074.87;1679078;83;21044;-50
2022/09/02 02:10:01;;;;;;;4.60;3.10;;;;;;;7.71;100.00;100080.98;1670006;83;20927;-51
2022/09/02 02:12:29;;;;;;;7.70;4.40;;;;;;;7.76;100.00;100074.13;1624945;85;21202;-50
2022/09/02 02:14:55;;;;;;;8.47;3.70;;;;;;;7.79;100.00;100080.28;1693499;82;20926;-50
2022/09/02 02:17:22;;;;;;;7.97;3.30;;;;;;;7.80;100.00;100075.34;1689426;82;21539;-52
2022/09/02 02:19:48;;;;;;;7.77;5.17;;;;;;;7.75;100.00;100081.29;1684344;83;20981;-51
2022/09/02 02:22:14;;;;;;;8.27;4.60;;;;;;;7.67;100.00;100082.45;1691157;82;21072;-50
2022/09/02 02:24:40;;;;;;;8.23;4.67;;;;;;;7.57;100.00;100087.25;1693051;82;21162;-50
2022/09/02 02:27:07;;;;;;;8.47;3.60;;;;;;;7.48;100.00;100089.74;1689503;82;21100;-53
2022/09/02 02:29:34;;;;;;;5.77;3.83;;;;;;;7.42;100.00;100089.91;1675951;83;21569;-51
2022/09/02 02:32:01;;;;;;;4.60;3.27;;;;;;;7.38;100.00;100084.24;1672480;83;21133;-52
2022/09/02 02:34:27;;;;;;;7.20;2.83;;;;;;;7.36;100.00;100086.54;1681206;83;21336;-51
2022/09/02 02:36:53;;;;;;;7.10;3.27;;;;;;;7.36;100.00;100090.09;1693471;82;21654;-51
2022/09/02 02:39:21;;;;;;;5.57;3.27;;;;;;;7.35;100.00;100086.12;1686772;82;21144;-51
2022/09/02 02:41:47;;;;;;;3.37;2.77;;;;;;;7.30;100.00;100080.92;1679012;83;21605;-51
2022/09/02 02:44:15;;;;;;;3.50;2.97;;;;;;;7.31;100.00;100085.36;1661634;83;21542;-50
2022/09/02 02:46:42;;;;;;;7.70;3.40;;;;;;;7.33;100.00;100080.80;1680416;83;21112;-52
2022/09/02 02:49:08;;;;;;;11.67;4.33;;;;;;;7.36;100.00;100089.22;1665628;83;22227;-50
2022/09/02 02:51:37;;;;;;;4.83;3.00;;;;;;;7.37;100.00;100087.84;1676623;83;21089;-53
2022/09/02 02:54:04;;;;;;;5.00;4.03;;;;;;;7.40;100.00;100092.23;1669751;85;21118;-52
2022/09/02 02:56:31;;;;;;;6.27;3.57;;;;;;;7.37;100.00;100093.20;1680209;84;21081;-51
2022/09/02 02:59:02;;;;;;;7.30;4.07;;;;;;;7.33;100.00;100086.62;1680904;84;21064;-52
2022/09/02 03:01:30;;;;;;;5.70;3.03;;;;;;;7.27;100.00;100090.37;1686264;84;22666;-51
2022/09/02 03:03:57;;;;;;;5.87;3.50;;;;;;;7.17;100.00;100095.56;1679984;84;21085;-50
2022/09/02 03:06:23;;;;;;;6.93;3.50;;;;;;;7.07;100.00;100100.77;1680709;84;21096;-51
2022/09/02 03:08:52;;;;;;;6.83;3.83;;;;;;;7.02;100.00;100106.72;1685345;84;21108;-51
2022/09/02 03:11:21;;;;;;;4.67;2.87;;;;;;;6.99;100.00;100105.00;1678292;84;21077;-50
2022/09/02 03:13:49;;;;;;;10.63;3.67;;;;;;;7.02;100.00;100113.41;1679956;84;21162;-50
2022/09/02 03:16:18;;;;;;;4.33;2.93;;;;;;;7.07;100.00;100111.47;1680390;84;21018;-50
2022/09/02 03:18:47;;;;;;;6.63;3.50;;;;;;;7.14;100.00;100110.41;1682841;84;21168;-50
2022/09/02 03:21:14;;;;;;;6.27;3.53;;;;;;;7.20;100.00;100122.27;1680253;84;21101;-51
2022/09/02 03:23:42;;;;;;;4.70;3.03;;;;;;;7.18;100.00;100116.06;1676919;83;21068;-50
2022/09/02 03:26:16;;;;;;;6.23;4.17;;;;;;;7.15;100.00;100125.52;1676115;83;21717;-50
2022/09/02 03:28:43;;;;;;;6.45;4.20;;;;;;;7.12;100.00;100128.30;1642760;84;21419;-50
2022/09/02 03:31:16;;;;;;;7.20;4.50;;;;;;;7.07;100.00;100131.55;1672953;83;21084;-50
2022/09/02 03:33:42;;;;;;;6.33;3.67;;;;;;;7.01;100.00;100130.39;1680994;83;21069;-51
2022/09/02 03:36:25;;;;;;;5.67;2.87;;;;;;;6.95;100.00;100136.80;1689154;82;21607;-49
2022/09/02 03:38:53;;;;;;;8.17;4.37;;;;;;;6.83;100.00;100143.34;1671572;83;21088;-50
2022/09/02 03:41:19;;;;;;;7.27;4.73;;;;;;;6.71;100.00;100150.38;1665179;83;21305;-52
2022/09/02 03:43:46;;;;;;;5.27;3.80;;;;;;;6.60;100.00;100147.09;1661030;85;21050;-49
2022/09/02 03:46:14;;;;;;;7.53;4.20;;;;;;;6.59;100.00;100153.36;1662591;85;21492;-49
2022/09/02 03:48:40;;;;;;;8.17;4.10;;;;;;;6.63;100.00;100152.84;1662780;85;21169;-52
2022/09/02 03:51:08;;;;;;;6.90;3.73;;;;;;;6.67;100.00;100160.73;1659128;85;21122;-50
2022/09/02 03:53:37;;;;;;;6.67;3.83;;;;;;;6.74;100.00;100158.30;1687900;82;21143;-51
2022/09/02 03:56:10;;;;;;;7.77;3.07;;;;;;;6.77;100.00;100157.36;1692137;82;21060;-51
2022/09/02 03:58:38;;;;;;;6.00;4.73;;;;;;;6.77;100.00;100170.73;1691883;82;21096;-50
2022/09/02 04:01:05;;;;;;;8.37;3.80;;;;;;;6.76;100.00;100167.18;1690145;82;21120;-52
2022/09/02 04:03:33;;;;;;;8.90;5.30;;;;;;;6.76;100.00;100166.30;1679938;83;21181;-51
2022/09/02 04:06:01;;;;;;;7.50;5.10;;;;;;;6.75;100.00;100169.89;1662494;85;21066;-51
2022/09/02 04:08:29;;;;;;;5.83;4.03;;;;;;;6.74;100.00;100166.33;1692665;82;21355;-52
2022/09/02 04:10:58;;;;;;;7.00;4.57;;;;;;;6.75;100.00;100166.76;1670254;83;21438;-51
2022/09/02 04:13:25;;;;;;;6.70;4.07;;;;;;;6.80;100.00;100167.50;1657369;83;21113;-54
2022/09/02 04:15:51;;;;;;;11.10;4.17;;;;;;;6.98;100.00;100175.95;1692640;82;20985;-51
2022/09/02 04:18:20;;;;;;;5.00;3.93;;;;;;;7.29;100.00;100174.67;1665015;83;21114;-52
2022/09/02 04:23:25;;;;;;;7.93;4.27;;;;;;;8.04;100.00;100178.22;1785919;78;22593;-51
2022/09/02 04:25:51;;;;;;;7.60;3.47;;;;;;;8.25;100.00;100172.66;1742169;80;21038;-51
2022/09/02 04:28:18;;;;;;;5.73;4.03;;;;;;;8.42;100.00;100172.98;1746517;80;21389;-51
2022/09/02 04:30:46;;;;;;;5.43;3.27;;;;;;;8.47;100.00;100175.53;1741910;80;21118;-50
2022/09/02 04:33:13;;;;;;;5.63;3.77;;;;;;;8.51;100.00;100178.52;1709056;81;21071;-52
2022/09/02 04:35:42;;;;;;;8.70;4.67;;;;;;;8.57;100.00;100187.27;1704206;81;21510;-52
2022/09/02 04:38:09;;;;;;;5.70;3.83;;;;;;;8.69;100.00;100178.78;1711465;81;21432;-52
2022/09/02 04:40:44;;;;;;;8.03;4.60;;;;;;;8.88;100.00;100183.53;1685783;81;21255;-52
2022/09/02 04:43:11;;;;;;;;;;;;;;;9.06;100.00;100182.43;1705042;81;21048;-52
2022/09/02 04:45:41;;;;;;;7.77;3.33;;;;;;;9.29;100.00;100184.75;1696919;82;20194;-51
2022/09/02 04:48:07;;;;;;;12.33;5.57;;;;;;;9.49;100.00;100183.56;1684852;82;21104;-52
2022/09/02 04:50:35;;;;;;;12.10;7.57;;;;;;;9.71;100.00;100189.88;1712884;82;20979;-50
2022/09/02 04:53:02;;;;;;;30.60;17.77;;;;;;;9.97;100.00;100190.23;1710293;82;21104;-54
2022/09/02 04:55:30;;;;;;;35.23;19.25;;;;;;;10.18;100.00;100189.44;1709077;82;21498;-49
2022/09/02 04:57:58;;;;;;;42.33;21.62;;;;;;;10.37;100.00;100185.55;1695880;82;20927;-51
2022/09/02 05:00:25;;;;;;;43.17;23.92;;;;;;;10.56;100.00;100185.65;1683247;83;21419;-52
2022/09/02 05:02:53;;;;;;;49.25;27.13;;;;;;;10.73;100.00;100184.94;1686892;83;20939;-51
2022/09/02 05:05:20;;;;;;;50.98;28.05;;;;;;;10.87;100.00;100182.56;1683448;83;21099;-53
2022/09/02 05:07:47;;;;;;;51.08;29.07;;;;;;;11.01;100.00;100186.88;1683677;83;20989;-50
2022/09/02 05:10:16;;;;;;;51.10;29.48;;;;;;;11.13;100.00;100183.67;1686459;83;21006;-52
2022/09/02 05:12:43;;;;;;;47.15;27.75;;;;;;;11.28;100.00;100184.80;1685655;83;20946;-52
2022/09/02 05:15:11;;;;;;;47.75;28.87;;;;;;;11.38;100.00;100182.98;1679761;83;21409;-52
2022/09/02 05:17:39;;;;;;;46.80;26.97;;;;;;;11.49;100.00;100182.95;1682718;83;20990;-52
2022/09/02 05:20:07;;;;;;;37.63;24.00;;;;;;;11.59;100.00;100184.30;1682166;83;21069;-52
2022/09/02 05:22:35;;;;;;;39.18;22.50;;;;;;;11.67;100.00;100185.69;1681080;83;21446;-52
2022/09/02 05:25:08;;;;;;;33.88;18.23;;;;;;;11.75;100.00;100186.72;1684557;83;21111;-52
2022/09/02 05:27:36;;;;;;;32.65;18.27;;;;;;;11.81;100.00;100190.51;1673647;83;21821;-50
2022/09/02 05:30:04;;;;;;;27.10;16.55;;;;;;;11.88;100.00;100187.92;1671124;83;21098;-50
2022/09/02 05:32:32;;;;;;;31.75;16.75;;;;;;;11.93;100.00;100184.99;1671236;83;21086;-49
2022/09/02 05:34:58;;;;;;;27.32;16.85;;;;;;;11.98;100.00;100187.90;1668655;84;21113;-50
2022/09/02 05:37:25;;;;;;;39.95;21.30;;;;;;;12.05;100.00;100190.70;1674782;83;21367;-51
2022/09/02 05:39:52;;;;;;;52.33;28.92;;;;;;;12.15;100.00;100190.27;1674590;83;21536;-51
2022/09/02 05:42:19;;;;;;;55.83;30.35;;;;;;;12.25;100.00;100188.38;1666495;84;21143;-50
2022/09/02 05:44:47;;;;;;;74.95;46.55;;;;;;;12.36;100.00;100194.62;1672890;83;21078;-49
2022/09/02 05:47:15;;;;;;;82.57;51.92;;;;;;;12.50;100.00;100194.84;1671232;83;21039;-49
2022/09/02 05:49:43;;;;;;;96.95;62.43;;;;;;;12.61;100.00;100188.89;1670275;83;21082;-51
2022/09/02 05:52:12;;;;;;;126.42;81.55;;;;;;;12.71;100.00;100194.23;1667056;83;21076;-49
2022/09/02 05:54:40;;;;;;;139.10;92.35;;;;;;;12.80;100.00;100184.32;1674205;83;22445;-52
2022/09/02 05:57:12;;;;;;;140.85;91.02;;;;;;;12.90;100.00;100191.02;1674750;83;21064;-51
2022/09/02 05:59:41;;;;;;;133.20;83.20;;;;;;;13.00;100.00;100188.72;1676688;84;21110;-50
2022/09/02 06:02:10;;;;;;;121.40;80.70;;;;;;;13.08;100.00;100194.61;1672642;84;21066;-50
2022/09/02 06:04:45;;;;;;;133.32;83.55;;;;;;;13.17;100.00;100196.87;1676820;83;22309;-51
2022/09/02 06:07:12;;;;;;;136.77;84.83;;;;;;;13.26;100.00;100199.10;1672078;83;21130;-51
2022/09/02 06:09:40;;;;;;;120.35;77.97;;;;;;;13.34;100.00;100198.22;1668591;83;21125;-52
2022/09/02 06:12:07;;;;;;;126.67;82.00;;;;;;;13.42;100.00;100201.88;1669647;84;21057;-50
2022/09/02 06:14:34;;;;;;;116.45;74.87;;;;;;;13.47;100.00;100204.72;1670560;84;21382;-51
2022/09/02 06:17:01;;;;;;;99.92;70.15;;;;;;;13.54;100.00;100203.43;1671394;83;22602;-50
2022/09/02 06:19:31;;;;;;;110.15;66.70;;;;;;;13.62;100.00;100209.78;1668014;83;21113;-50
2022/09/02 06:21:59;;;;;;;87.15;59.18;;;;;;;13.71;100.00;100208.41;1671612;83;21255;-50
2022/09/02 06:24:26;;;;;;;101.27;65.30;;;;;;;13.80;100.00;100211.98;1706615;82;21513;-52
2022/09/02 06:26:53;;;;;;;91.08;61.48;;;;;;;13.87;100.00;100214.27;1710625;82;21053;-49
2022/09/02 06:29:21;;;;;;;90.45;57.13;;;;;;;13.94;100.00;100211.64;1706915;82;21384;-52
2022/09/02 06:31:48;;;;;;;99.97;63.90;;;;;;;13.99;100.00;100210.91;1706024;82;21495;-49
2022/09/02 06:34:16;;;;;;;105.22;66.47;;;;;;;14.04;100.00;100211.98;1705854;82;21133;-47
2022/09/02 06:36:45;;;;;;;95.45;66.05;;;;;;;14.15;100.00;100220.39;1703992;82;21033;-49
2022/09/02 06:39:14;;;;;;;106.90;68.40;;;;;;;14.15;100.00;100220.39;1712558;82;21113;-49
2022/09/02 06:41:42;;;;;;;95.07;62.80;;;;;;;14.22;100.00;100216.38;1705220;82;21111;-48
2022/09/02 06:44:10;;;;;;;77.45;52.80;;;;;;;14.31;100.00;100214.99;1703774;82;21110;-49
2022/09/02 06:46:42;;;;;;;72.90;45.73;;;;;;;14.42;100.00;100220.72;1693689;82;21081;-50
2022/09/02 06:49:10;;;;;;;57.53;37.65;;;;;;;14.53;100.00;100212.00;1693856;82;21086;-48
2022/09/02 06:51:43;;;;;;;44.53;27.48;;;;;;;14.61;100.00;100223.27;1714894;82;21023;-47
2022/09/02 06:54:13;;;;;;;44.75;26.93;;;;;;;14.67;100.00;100213.42;1701782;82;21476;-48
2022/09/02 06:56:39;;;;;;;46.75;30.37;;;;;;;14.75;100.00;100226.05;1705256;82;21149;-50
2022/09/02 06:59:06;;;;;;;46.50;30.50;;;;;;;14.82;100.00;100227.91;1699405;82;21422;-47
2022/09/02 07:01:35;;;;;;;63.92;41.18;;;;;;;14.81;100.00;100222.97;1705548;82;21257;-49
2022/09/02 07:06:52;;;;;;;74.82;47.35;;;;;;;14.95;100.00;100232.55;1690729;82;21084;-50
2022/09/02 07:09:29;;;;;;;74.15;47.43;;;;;;;15.01;100.00;100232.17;1703802;82;21086;-48
2022/09/02 07:11:52;;;;;;;77.17;47.43;;;;;;;15.08;100.00;100229.49;1707507;82;21057;-49
2022/09/02 07:14:21;;;;;;;77.42;53.95;;;;;;;15.13;100.00;100231.47;1702699;82;21031;-48
2022/09/02 07:16:51;;;;;;;82.88;57.23;;;;;;;15.19;100.00;100236.12;1701826;82;21105;-51
2022/09/02 07:19:19;;;;;;;85.50;59.13;;;;;;;15.24;100.00;100236.70;1700240;82;21038;-48
2022/09/02 07:21:45;;;;;;;120.40;85.35;;;;;;;15.28;100.00;100237.80;1705905;82;21627;-48
2022/09/02 07:24:13;;;;;;;121.72;81.75;;;;;;;15.35;100.00;100238.30;1692386;82;21098;-50
2022/09/02 07:26:40;;;;;;;132.72;92.97;;;;;;;15.42;100.00;100232.41;1703577;82;21065;-50
2022/09/02 07:29:07;;;;;;;134.55;95.60;;;;;;;15.47;100.00;100238.94;1698331;82;20973;-49
2022/09/02 07:31:37;;;;;;;163.45;113.28;;;;;;;15.51;100.00;100240.00;1697027;82;21542;-50
2022/09/02 07:34:05;;;;;;;158.52;109.83;;;;;;;15.55;100.00;100234.43;1698168;82;21840;-50
2022/09/02 07:36:33;;;;;;;130.87;92.82;;;;;;;15.63;100.00;100235.70;1698598;82;21338;-49
2022/09/02 07:39:07;;;;;;;102.02;73.80;;;;;;;15.72;100.00;100236.50;1707688;82;22261;-48
2022/09/02 07:41:35;;;;;;;105.85;76.35;;;;;;;15.79;100.00;100238.34;1706555;82;20902;-51
2022/09/02 07:44:03;;;;;;;122.28;85.45;;;;;;;15.86;100.00;100228.84;1701047;82;21421;-53
2022/09/02 07:46:31;;;;;;;142.18;100.10;;;;;;;15.94;100.00;100236.51;1710637;82;20910;-51
2022/09/02 07:49:00;;;;;;;111.50;81.10;;;;;;;15.98;100.00;100236.23;1707622;82;20926;-51
2022/09/02 07:51:26;;;;;;;103.10;71.85;;;;;;;16.00;100.00;100226.61;1701156;82;21423;-52
2022/09/02 07:53:53;;;;;;;117.77;84.42;;;;;;;16.02;100.00;100226.91;1707057;82;20906;-48
2022/09/02 07:56:20;;;;;;;94.62;67.75;;;;;;;16.08;100.00;100227.00;1703180;82;21852;-53
2022/09/02 07:58:46;;;;;;;97.12;62.83;;;;;;;16.12;100.00;100230.80;1672078;82;21104;-49
2022/09/02 08:01:13;;;;;;;83.95;58.28;;;;;;;16.15;100.00;100232.45;1706824;82;21582;-51
2022/09/02 08:03:40;;;;;;;76.55;53.30;;;;;;;16.21;100.00;100222.55;1696337;82;20946;-52
2022/09/02 08:06:07;;;;;;;72.25;50.00;;;;;;;16.30;100.00;100219.73;1702409;82;20965;-49
2022/09/02 08:08:34;;;;;;;31.65;24.55;;;;;;;16.41;100.00;100222.15;1704605;82;21307;-50
2022/09/02 08:11:01;;;;;;;24.10;17.52;;;;;;;16.50;100.00;100222.04;1699614;82;21070;-48
2022/09/02 08:13:29;;;;;;;11.93;8.18;;;;;;;16.53;100.00;100218.61;1701570;82;21438;-48
2022/09/02 08:15:55;;;;;;;6.75;3.72;;;;;;;16.56;100.00;100223.86;1702468;82;21409;-52
2022/09/02 08:18:22;;;;;;;5.92;1.65;;;;;;;16.59;100.00;100215.48;1699720;82;20989;-51
2022/09/02 08:20:48;;;;;;;2.90;1.07;;;;;;;16.61;100.00;100209.51;1701236;82;22332;-48
2022/09/02 08:23:14;;;;;;;2.15;1.10;;;;;;;16.57;100.00;100207.95;1705186;82;21123;-49
2022/09/02 08:25:42;;;;;;;2.22;1.00;;;;;;;16.58;100.00;100209.70;1705634;82;20962;-50
2022/09/02 08:28:08;;;;;;;6.85;1.37;;;;;;;16.60;100.00;100196.85;1703869;82;21510;-50
2022/09/02 08:30:35;;;;;;;3.75;1.05;;;;;;;16.67;100.00;100206.02;1708514;82;21544;-51
2022/09/02 08:33:02;;;;;;;1.90;0.80;;;;;;;16.77;100.00;100207.13;1707232;82;21129;-53
2022/09/02 08:35:28;;;;;;;3.80;0.62;;;;;;;16.87;100.00;100204.19;1704143;82;21820;-50
2022/09/02 08:37:58;;;;;;;0.95;0.60;;;;;;;16.98;100.00;100197.55;1704947;82;21038;-52
2022/09/02 08:40:30;;;;;;;0.85;0.60;;;;;;;17.09;100.00;100199.06;1707640;82;21042;-53
2022/09/02 08:42:56;;;;;;;2.47;0.50;;;;;;;17.20;100.00;100192.86;1702733;82;21038;-50
2022/09/02 08:45:36;;;;;;;1.92;0.50;;;;;;;17.35;100.00;100186.39;1703769;82;21535;-52
2022/09/02 08:48:41;;;;;;;1.05;0.70;;;;;;;17.53;100.00;100193.25;1676773;84;21526;-51
2022/09/02 08:51:11;;;;;;;1.98;0.45;;;;;;;17.70;100.00;100195.69;1677301;83;21062;-52
2022/09/02 08:54:11;;;;;;;2.37;0.60;;;;;;;17.75;100.00;100198.11;1713078;82;21096;-51
2022/09/02 08:56:37;;;;;;;1.75;0.50;;;;;;;17.73;100.00;100202.78;1700972;82;21521;-53
2022/09/02 08:59:05;;;;;;;2.12;0.50;;;;;;;17.72;100.00;100196.95;1696879;82;21053;-49
2022/09/02 09:01:41;;;;;;;0.68;0.50;;;;;;;17.65;100.00;100199.24;1708490;82;21188;-50
2022/09/02 09:04:30;;;;;;;3.10;0.60;;;;;;;17.57;100.00;100191.20;1704877;82;21089;-50
2022/09/02 09:07:08;;;;;;;1.50;0.70;;;;;;;17.58;100.00;100197.03;1701504;82;21236;-50
2022/09/02 09:10:01;;;;;;;2.17;0.78;;;;;;;17.67;100.00;100190.97;1709660;82;21522;-47
2022/09/02 09:13:01;;;;;;;2.98;1.00;;;;;;;17.76;100.00;100198.49;1695655;82;21129;-49
2022/09/02 09:15:57;;;;;;;1.07;0.80;;;;;;;17.86;100.00;100179.16;1711647;82;21162;-49
2022/09/02 09:18:38;;;;;;;2.30;1.80;;;;;;;17.91;100.00;100189.72;1694847;82;21020;-50
2022/09/02 09:21:06;;;;;;;1.20;1.10;;;;;;;17.87;100.00;100197.70;1707550;82;21098;-52
2022/09/02 09:23:36;;;;;;;3.42;1.15;;;;;;;17.74;100.00;100198.59;1709119;82;21046;-50
2022/09/02 09:26:11;;;;;;;1.92;1.00;;;;;;;17.63;100.00;100197.11;1651854;84;21045;-50
2022/09/02 09:28:44;;;;;;;1.65;1.02;;;;;;;17.54;100.00;100198.20;1670464;84;21161;-49
2022/09/02 09:31:14;;;;;;;1.67;0.90;;;;;;;17.48;100.00;100198.64;1671758;84;21053;-51
2022/09/02 09:34:01;;;;;;;2.60;1.30;;;;;;;17.46;100.00;100197.87;1668816;84;21529;-50
2022/09/02 09:36:44;;;;;;;4.25;1.50;;;;;;;17.49;100.00;100201.27;1668928;84;21082;-48
2022/09/02 09:39:24;;;;;;;4.37;0.93;;;;;;;17.51;100.00;100190.28;1671071;84;21046;-48
2022/09/02 09:41:53;;;;;;;2.42;1.00;;;;;;;17.60;100.00;100196.44;1669228;84;21226;-50
2022/09/02 09:44:38;;;;;;;1.50;0.78;;;;;;;17.70;100.00;100193.45;1673359;84;21077;-49
2022/09/02 09:47:08;;;;;;;1.40;0.85;;;;;;;17.75;100.00;100200.83;1671015;84;21074;-52
2022/09/02 09:49:36;;;;;;;2.10;1.10;;;;;;;17.81;100.00;100196.30;1674239;84;21126;-50
2022/09/02 09:52:03;;;;;;;2.58;0.90;;;;;;;17.91;100.00;100200.12;1710328;82;20944;-50
2022/09/02 09:54:29;;;;;;;3.67;0.90;;;;;;;18.02;100.00;100199.36;1702440;82;21218;-49
2022/09/02 09:56:56;;;;;;;3.80;0.85;;;;;;;18.14;100.00;100196.61;1702651;82;21141;-52
2022/09/02 09:59:40;;;;;;;1.00;0.78;;;;;;;18.24;100.00;100187.27;1704342;81;21056;-51
2022/09/02 10:02:23;;;;;;;1.80;0.75;;;;;;;18.34;100.00;100186.98;1703314;82;21134;-49
2022/09/02 10:05:10;;;;;;;1.77;0.72;;;;;;;18.45;100.00;100190.30;1706156;82;21073;-50
2022/09/02 10:07:40;;;;;;;4.22;0.80;;;;;;;18.49;100.00;100183.13;1655560;84;21512;-48
2022/09/02 10:10:22;;;;;;;3.95;0.70;;;;;;;18.52;100.00;100190.22;1672802;84;21019;-51
2022/09/02 10:12:51;;;;;;;1.47;0.72;;;;;;;18.46;100.00;100180.61;1712138;82;21092;-51
2022/09/02 10:15:41;;;;;;;2.30;0.90;;;;;;;18.41;100.00;100186.04;1677400;83;21100;-52
2022/09/02 10:18:16;;;;;;;2.45;0.88;;;;;;;18.28;100.00;100182.48;1673151;83;21065;-53
2022/09/02 10:21:07;;;;;;;1.02;0.65;;;;;;;18.13;100.00;100189.90;1697799;82;21213;-50
2022/09/02 10:23:42;;;;;;;4.30;0.75;;;;;;;18.01;100.00;100182.14;1677122;83;21698;-50
2022/09/02 10:26:36;;;;;;;1.85;0.60;;;;;;;17.98;100.00;100174.67;1718148;81;21049;-50
2022/09/02 10:29:16;;;;;;;0.90;0.60;;;;;;;18.01;100.00;100179.42;1666417;82;21060;-50
2022/09/02 10:32:06;;;;;;;0.80;0.53;;;;;;;18.05;100.00;100171.39;1717032;82;21104;-50
2022/09/02 10:34:54;;;;;;;5.37;0.57;;;;;;;18.07;100.00;100178.09;1712912;81;21568;-49
2022/09/02 10:37:23;;;;;;;1.80;0.60;;;;;;;18.09;100.00;100177.50;1711231;81;21063;-53
2022/09/02 10:40:10;;;;;;;0.78;0.40;;;;;;;18.13;100.00;100179.87;1682540;83;20907;-52
2022/09/02 10:42:55;;;;;;;2.00;0.50;;;;;;;18.19;100.00;100179.94;1660137;83;20899;-51
2022/09/02 10:45:45;;;;;;;3.30;0.60;;;;;;;18.24;100.00;100179.59;1679989;83;21065;-47
2022/09/02 10:48:58;;;;;;;0.98;0.40;;;;;;;18.25;100.00;100178.12;1681893;83;21247;-47
2022/09/02 10:51:39;;;;;;;0.70;0.50;;;;;;;18.31;100.00;100190.41;1678247;83;20871;-52
2022/09/02 10:54:34;;;;;;;3.30;0.60;;;;;;;18.34;100.00;100174.72;1713773;81;20879;-48
2022/09/02 10:57:07;;;;;;;0.70;0.50;;;;;;;18.40;100.00;100179.72;1714180;81;21061;-49
2022/09/02 10:59:40;;;;;;;1.77;0.60;;;;;;;18.43;100.00;100178.63;1715423;81;21036;-50
2022/09/02 11:02:21;;;;;;;2.77;0.50;;;;;;;18.41;100.00;100180.09;1714767;81;22509;-48
2022/09/02 11:04:55;;;;;;;1.72;0.60;;;;;;;18.39;100.00;100188.00;1715844;81;21708;-49
2022/09/02 11:07:48;;;;;;;1.22;0.62;;;;;;;18.39;100.00;100187.51;1716256;81;20926;-51
2022/09/02 11:10:19;;;;;;;1.32;0.60;;;;;;;18.38;100.00;100188.98;1709781;81;21004;-47
2022/09/02 11:13:13;;;;;;;2.90;0.60;;;;;;;18.36;100.00;100180.06;1716159;81;20907;-49
2022/09/02 11:15:57;;;;;;;0.90;0.70;;;;;;;18.36;100.00;100185.03;1663263;84;21210;-50
2022/09/02 11:18:42;;;;;;;0.73;0.57;;;;;;;18.39;100.00;100183.91;1715648;81;21493;-49
2022/09/02 11:21:32;;;;;;;3.60;0.65;;;;;;;18.37;100.00;100189.98;1680111;83;21541;-49
2022/09/02 11:24:07;;;;;;;1.00;0.70;;;;;;;18.34;100.00;100186.12;1675107;83;21073;-47
2022/09/02 11:26:50;;;;;;;1.20;0.65;;;;;;;18.34;100.00;100185.63;1701430;82;21147;-48
2022/09/02 11:29:37;;;;;;;1.05;0.80;;;;;;;18.37;100.00;100178.56;1671005;82;22209;-48
2022/09/02 11:32:17;;;;;;;4.30;0.90;;;;;;;18.45;100.00;100182.12;1710685;82;21125;-51
2022/09/02 11:34:47;;;;;;;3.98;1.30;;;;;;;18.54;100.00;100182.28;1670011;84;20970;-50
2022/09/02 11:37:39;;;;;;;2.17;1.15;;;;;;;18.62;100.00;100184.50;1657735;84;21109;-48